Time;durP1;ratioP1;P1;durP2;ratioP2;P2;SDS_P1;SDS_P2;PMS_P1;PMS_P2;Temp;Humidity;BMP_temperature;BMP_pressure;BME280_temperature;BME280_humidity;BME280_pressure;Samples;Min_cycle;Max_cycle;Signal;HPM_P1;HPM_P2
2022/08/04 00:00:02;;;;;;;3.08;1.80;;;25.70;73.50;;;;;;4928857;28;20192;-75
2022/08/04 00:02:53;;;;;;;3.30;1.85;;;25.70;74.00;;;;;;4986535;28;20203;-76
2022/08/04 00:05:50;;;;;;;2.72;1.92;;;25.70;74.60;;;;;;4999769;28;20210;-77
2022/08/04 00:08:44;;;;;;;2.92;1.92;;;25.60;75.20;;;;;;4994961;28;20184;-76
2022/08/04 00:11:13;;;;;;;2.72;1.90;;;25.50;75.00;;;;;;4975394;28;20214;-77
2022/08/04 00:13:43;;;;;;;3.28;2.05;;;25.50;74.00;;;;;;4982009;28;20192;-76
2022/08/04 00:16:09;;;;;;;4.00;1.75;;;25.40;74.90;;;;;;4985226;28;20334;-76
2022/08/04 00:18:41;;;;;;;3.58;2.00;;;25.40;74.80;;;;;;4985056;28;20327;-76
2022/08/04 00:21:11;;;;;;;3.15;1.60;;;25.40;75.70;;;;;;4982153;28;20202;-77
2022/08/04 00:23:38;;;;;;;2.35;1.60;;;25.30;76.30;;;;;;4993716;28;20176;-75
2022/08/04 00:26:04;;;;;;;4.03;2.10;;;25.30;75.80;;;;;;4976611;28;20291;-76
2022/08/04 00:28:34;;;;;;;4.55;1.80;;;25.30;75.90;;;;;;4979389;28;20275;-77
2022/08/04 00:31:05;;;;;;;2.60;1.90;;;25.30;76.20;;;;;;4985193;28;20225;-77
2022/08/04 00:33:34;;;;;;;2.65;1.95;;;25.30;76.40;;;;;;4988130;28;20211;-76
2022/08/04 00:36:02;;;;;;;2.58;1.80;;;25.20;76.60;;;;;;4982333;28;20198;-76
2022/08/04 00:38:32;;;;;;;2.45;1.60;;;25.20;76.90;;;;;;4981598;28;20275;-76
2022/08/04 00:41:06;;;;;;;2.13;1.52;;;25.20;76.80;;;;;;4984205;28;20282;-77
2022/08/04 00:43:42;;;;;;;3.33;1.70;;;25.20;77.50;;;;;;4984283;28;20193;-76
2022/08/04 00:46:34;;;;;;;2.33;1.92;;;25.10;77.20;;;;;;4983054;28;20274;-76
2022/08/04 00:49:10;;;;;;;2.90;1.73;;;25.10;78.00;;;;;;4983399;28;20215;-76
2022/08/04 00:52:00;;;;;;;3.00;2.10;;;25.10;78.80;;;;;;4984948;28;20207;-77
2022/08/04 00:54:33;;;;;;;3.78;2.08;;;25.10;79.80;;;;;;5002427;28;20203;-75
2022/08/04 00:57:23;;;;;;;5.18;2.20;;;25.00;78.90;;;;;;4999533;28;21010;-76
2022/08/04 01:00:21;;;;;;;2.53;1.88;;;24.90;78.50;;;;;;4988870;28;20272;-76
2022/08/04 01:02:50;;;;;;;2.55;1.58;;;24.90;79.80;;;;;;4948269;28;20281;-77
2022/08/04 01:05:58;;;;;;;4.75;1.80;;;24.90;79.40;;;;;;4974788;28;20213;-77
2022/08/04 01:08:39;;;;;;;2.22;1.60;;;24.80;81.40;;;;;;4984469;28;20187;-76
2022/08/04 01:11:23;;;;;;;2.47;1.67;;;24.80;81.80;;;;;;4985473;28;20175;-76
2022/08/04 01:14:05;;;;;;;2.15;1.60;;;24.70;81.90;;;;;;4984193;28;20233;-76
2022/08/04 01:16:38;;;;;;;1.88;1.38;;;24.70;80.50;;;;;;4981539;28;20196;-76
2022/08/04 01:19:29;;;;;;;1.92;1.55;;;24.70;81.00;;;;;;4980124;28;20209;-77
2022/08/04 01:22:03;;;;;;;2.63;1.50;;;24.70;82.90;;;;;;4982621;28;20262;-76
2022/08/04 01:24:49;;;;;;;3.13;1.70;;;24.70;81.60;;;;;;4980913;28;20270;-76
2022/08/04 01:27:27;;;;;;;1.95;1.73;;;24.70;82.40;;;;;;4977689;28;20205;-76
2022/08/04 01:30:00;;;;;;;3.97;1.55;;;24.60;82.70;;;;;;4980071;28;20407;-76
2022/08/04 01:32:52;;;;;;;2.22;1.60;;;24.60;83.40;;;;;;4981153;28;20187;-76
2022/08/04 01:35:39;;;;;;;2.35;1.55;;;24.60;84.20;;;;;;4984512;28;20194;-75
2022/08/04 01:38:34;;;;;;;1.83;1.52;;;24.60;83.70;;;;;;4985443;28;20240;-77
2022/08/04 01:41:04;;;;;;;2.35;1.63;;;24.50;83.70;;;;;;4980524;28;20187;-76
2022/08/04 01:43:32;;;;;;;2.40;1.40;;;24.50;83.10;;;;;;4982824;28;20195;-77
2022/08/04 01:46:00;;;;;;;4.22;1.77;;;24.50;82.90;;;;;;4980687;28;20200;-77
2022/08/04 01:48:38;;;;;;;2.10;1.50;;;24.50;83.10;;;;;;4981876;28;20333;-77
2022/08/04 01:51:06;;;;;;;1.70;1.50;;;24.50;83.90;;;;;;4985307;28;20180;-76
2022/08/04 01:53:36;;;;;;;3.25;1.42;;;24.50;83.30;;;;;;4996090;28;20229;-76
2022/08/04 01:56:04;;;;;;;2.00;1.45;;;24.50;83.70;;;;;;4986770;28;20181;-77
2022/08/04 01:58:32;;;;;;;2.50;1.65;;;24.50;84.00;;;;;;4985631;28;20188;-76
2022/08/04 02:01:05;;;;;;;2.75;1.50;;;24.50;84.10;;;;;;4978665;28;20203;-76
2022/08/04 02:03:32;;;;;;;2.75;1.60;;;24.50;84.20;;;;;;4979906;28;20183;-76
2022/08/04 02:06:42;;;;;;;3.40;1.52;;;24.40;84.40;;;;;;4995031;28;20214;-75
2022/08/04 02:09:26;;;;;;;2.47;1.55;;;24.40;85.80;;;;;;4938082;28;20211;-76
2022/08/04 02:12:07;;;;;;;3.55;1.48;;;24.30;85.90;;;;;;4984966;28;20199;-75
2022/08/04 02:15:02;;;;;;;2.00;1.55;;;24.30;85.80;;;;;;4983311;28;20343;-76
2022/08/04 02:17:55;;;;;;;2.75;1.80;;;24.30;86.60;;;;;;4994943;28;20187;-75
2022/08/04 02:20:31;;;;;;;2.97;1.88;;;24.20;86.40;;;;;;4976305;28;20191;-75
2022/08/04 02:23:08;;;;;;;3.05;1.50;;;24.10;86.40;;;;;;4976523;28;20207;-76
2022/08/04 02:25:56;;;;;;;2.05;1.55;;;24.10;86.90;;;;;;4984707;28;20184;-76
2022/08/04 02:28:24;;;;;;;3.08;1.60;;;24.10;87.90;;;;;;4983107;28;20274;-76
2022/08/04 02:31:02;;;;;;;1.67;1.33;;;24.00;86.70;;;;;;4994948;28;20186;-76
2022/08/04 02:33:56;;;;;;;2.38;1.48;;;24.00;86.40;;;;;;4984907;28;20182;-74
2022/08/04 02:36:33;;;;;;;1.95;1.38;;;23.90;88.30;;;;;;4982383;28;20251;-76
2022/08/04 02:39:01;;;;;;;2.28;1.52;;;23.90;88.20;;;;;;4980991;28;20207;-76
2022/08/04 02:41:29;;;;;;;2.35;1.45;;;23.90;87.60;;;;;;4976291;28;20199;-76
2022/08/04 02:43:58;;;;;;;2.20;1.70;;;23.80;88.20;;;;;;4980745;28;20214;-74
2022/08/04 02:46:25;;;;;;;1.85;1.40;;;23.80;88.70;;;;;;4988002;28;20184;-75
2022/08/04 02:48:52;;;;;;;2.55;1.63;;;23.80;88.70;;;;;;4979241;28;20191;-76
2022/08/04 02:51:43;;;;;;;1.98;1.33;;;23.80;89.20;;;;;;4976776;28;20199;-76
2022/08/04 02:54:09;;;;;;;3.90;2.25;;;23.80;90.20;;;;;;4983282;28;20217;-77
2022/08/04 02:56:37;;;;;;;1.90;1.48;;;23.70;89.70;;;;;;4983566;28;20187;-76
2022/08/04 02:59:06;;;;;;;3.22;1.80;;;23.70;90.20;;;;;;4981897;28;20204;-76
2022/08/04 03:01:32;;;;;;;3.00;1.70;;;23.60;90.50;;;;;;4978780;28;20204;-74
2022/08/04 03:04:13;;;;;;;2.88;1.60;;;23.60;90.60;;;;;;5000907;28;20183;-75
2022/08/04 03:07:00;;;;;;;2.38;1.52;;;23.60;91.70;;;;;;4997542;28;20187;-77
2022/08/04 03:10:00;;;;;;;3.33;1.80;;;23.60;92.20;;;;;;4988644;28;20196;-75
2022/08/04 03:12:25;;;;;;;3.42;1.75;;;23.50;92.30;;;;;;4996170;28;20238;-76
2022/08/04 03:15:19;;;;;;;2.40;1.75;;;23.50;91.50;;;;;;4981758;28;21057;-76
2022/08/04 03:18:00;;;;;;;2.45;1.30;;;23.50;92.50;;;;;;4989570;28;20247;-76
2022/08/04 03:20:32;;;;;;;3.25;1.55;;;23.50;92.50;;;;;;4978508;28;20212;-78
2022/08/04 03:23:12;;;;;;;2.28;1.42;;;23.50;92.70;;;;;;4979962;28;20204;-76
2022/08/04 03:25:52;;;;;;;3.03;1.60;;;23.50;93.10;;;;;;4985663;28;20197;-75
2022/08/04 03:28:33;;;;;;;2.63;1.85;;;23.50;93.00;;;;;;4994286;28;20294;-76
2022/08/04 03:31:23;;;;;;;1.50;1.40;;;23.50;92.80;;;;;;4995477;28;20183;-73
2022/08/04 03:33:58;;;;;;;5.63;4.93;;;23.40;93.60;;;;;;5006700;28;20171;-72
2022/08/04 03:36:45;;;;;;;4.95;4.25;;;23.40;93.80;;;;;;4981126;28;20175;-75
2022/08/04 03:39:25;;;;;;;4.88;3.47;;;23.40;93.50;;;;;;4985804;28;20179;-75
2022/08/04 03:42:18;;;;;;;2.70;2.35;;;23.40;94.90;;;;;;4981848;28;20196;-75
2022/08/04 03:45:05;;;;;;;4.25;3.00;;;23.40;95.00;;;;;;4979725;28;20225;-76
2022/08/04 03:47:50;;;;;;;6.88;5.97;;;23.40;95.30;;;;;;4998652;28;20179;-76
2022/08/04 03:50:31;;;;;;;4.53;3.75;;;23.30;95.30;;;;;;4979727;28;20199;-74
2022/08/04 03:53:18;;;;;;;2.67;2.47;;;23.30;96.00;;;;;;4983476;28;20214;-75
2022/08/04 03:55:50;;;;;;;3.20;2.70;;;23.30;96.40;;;;;;4999920;28;20176;-75
2022/08/04 03:59:09;;;;;;;3.47;2.08;;;23.30;95.80;;;;;;4987432;28;20202;-75
2022/08/04 04:01:56;;;;;;;5.05;1.90;;;23.20;96.80;;;;;;4942798;28;20250;-74
2022/08/04 04:05:00;;;;;;;2.60;2.20;;;23.20;95.80;;;;;;4976992;28;20231;-74
2022/08/04 04:07:47;;;;;;;4.68;3.72;;;23.20;96.80;;;;;;4966308;28;20180;-75
2022/08/04 04:10:28;;;;;;;3.33;2.70;;;23.20;97.70;;;;;;4996814;28;20206;-76
2022/08/04 04:13:18;;;;;;;2.30;2.10;;;23.20;98.20;;;;;;4995405;28;20187;-75
2022/08/04 04:16:06;;;;;;;3.90;1.90;;;23.20;98.30;;;;;;5003954;28;20204;-68
2022/08/04 04:18:45;;;;;;;2.60;1.70;;;23.20;99.50;;;;;;4974430;28;20323;-69
2022/08/04 04:21:28;;;;;;;3.90;1.95;;;23.20;97.90;;;;;;5007105;28;20222;-73
2022/08/04 04:24:16;;;;;;;2.35;1.80;;;23.20;98.50;;;;;;4980342;28;20303;-72
2022/08/04 04:26:50;;;;;;;2.72;1.80;;;23.10;99.40;;;;;;4994087;28;20180;-72
2022/08/04 04:29:34;;;;;;;3.00;2.15;;;23.10;99.90;;;;;;4988248;28;20180;-68
2022/08/04 04:32:15;;;;;;;3.30;2.60;;;23.10;99.90;;;;;;4983149;28;20200;-68
2022/08/04 04:34:46;;;;;;;4.78;2.20;;;23.10;99.90;;;;;;4979878;28;20195;-68
2022/08/04 04:37:56;;;;;;;4.00;2.67;;;23.10;99.90;;;;;;4987193;28;20184;-68
2022/08/04 04:40:30;;;;;;;2.33;2.13;;;23.20;99.90;;;;;;4960217;28;20227;-69
2022/08/04 04:43:31;;;;;;;2.40;2.00;;;23.20;99.90;;;;;;4992179;28;20195;-69
2022/08/04 04:46:11;;;;;;;2.88;2.20;;;23.10;99.90;;;;;;4978110;28;20178;-75
2022/08/04 04:48:52;;;;;;;2.42;2.00;;;23.20;99.90;;;;;;4981586;28;20244;-68
2022/08/04 04:51:36;;;;;;;2.35;2.05;;;23.20;99.90;;;;;;4976288;28;20186;-68
2022/08/04 04:54:07;;;;;;;2.50;2.05;;;23.20;99.90;;;;;;4980459;28;20191;-68
2022/08/04 04:56:52;;;;;;;3.40;1.85;;;23.20;99.90;;;;;;4998720;28;20180;-68
2022/08/04 04:59:21;;;;;;;1.98;1.58;;;23.20;99.90;;;;;;4977779;28;20207;-68
2022/08/04 05:02:08;;;;;;;3.80;1.88;;;23.20;99.90;;;;;;4981677;28;20215;-68
2022/08/04 05:04:52;;;;;;;3.75;2.05;;;23.30;99.90;;;;;;4992711;28;20179;-68
2022/08/04 05:07:57;;;;;;;3.65;1.90;;;23.30;99.90;;;;;;4997023;28;20714;-68
2022/08/04 05:10:51;;;;;;;1.58;1.48;;;23.30;99.90;;;;;;4986930;28;20234;-69
2022/08/04 05:13:45;;;;;;;2.30;1.77;;;23.40;99.90;;;;;;4988461;28;20195;-71
2022/08/04 05:16:39;;;;;;;2.50;1.60;;;23.40;99.90;;;;;;4992147;28;20188;-73
2022/08/04 05:19:25;;;;;;;2.30;1.67;;;23.40;99.90;;;;;;4979935;28;20214;-73
2022/08/04 05:22:09;;;;;;;2.45;1.90;;;23.50;99.90;;;;;;4986802;28;20738;-73
2022/08/04 05:24:40;;;;;;;3.58;1.90;;;23.50;99.90;;;;;;4988221;28;20172;-73
2022/08/04 05:27:32;;;;;;;3.25;1.80;;;23.50;99.90;;;;;;4981982;28;20210;-73
2022/08/04 05:30:04;;;;;;;2.33;1.77;;;23.60;99.90;;;;;;4978731;28;20223;-74
2022/08/04 05:32:41;;;;;;;3.30;1.95;;;23.60;99.90;;;;;;4980945;28;20279;-74
2022/08/04 05:35:14;;;;;;;2.97;1.73;;;23.60;99.90;;;;;;4983680;28;20203;-74
2022/08/04 05:37:43;;;;;;;3.25;2.00;;;23.60;99.90;;;;;;4982255;28;20187;-74
2022/08/04 05:40:11;;;;;;;2.10;1.90;;;23.70;99.90;;;;;;4986632;28;20196;-74
2022/08/04 05:42:42;;;;;;;2.55;1.92;;;23.70;99.90;;;;;;4982433;28;20234;-74
2022/08/04 05:45:09;;;;;;;4.47;2.00;;;23.80;99.90;;;;;;4982369;28;20184;-73
2022/08/04 05:47:36;;;;;;;4.82;2.53;;;23.80;99.90;;;;;;4984622;28;20187;-74
2022/08/04 05:50:04;;;;;;;3.58;2.10;;;23.80;99.90;;;;;;4982630;28;20232;-74
2022/08/04 05:52:32;;;;;;;2.60;2.20;;;23.90;99.90;;;;;;4975510;28;20271;-75
2022/08/04 05:54:59;;;;;;;2.40;2.08;;;23.90;99.90;;;;;;4986610;28;20192;-74
2022/08/04 05:57:28;;;;;;;2.83;2.17;;;23.90;99.90;;;;;;4979700;28;20262;-74
2022/08/04 05:59:57;;;;;;;2.78;2.35;;;24.00;99.90;;;;;;4985153;28;20183;-74
2022/08/04 06:02:27;;;;;;;3.67;2.30;;;24.10;99.90;;;;;;4983005;28;20225;-74
2022/08/04 06:04:56;;;;;;;3.25;2.03;;;24.10;99.90;;;;;;4981061;28;20254;-74
2022/08/04 06:07:25;;;;;;;3.50;2.00;;;24.10;99.90;;;;;;4984391;28;20182;-75
2022/08/04 06:09:51;;;;;;;2.85;2.15;;;24.20;99.90;;;;;;4990553;28;20182;-75
2022/08/04 06:12:24;;;;;;;5.97;2.22;;;24.30;99.90;;;;;;4984283;28;20271;-73
2022/08/04 06:14:52;;;;;;;4.60;2.03;;;24.30;99.90;;;;;;4980236;28;20184;-74
2022/08/04 06:17:24;;;;;;;3.55;2.47;;;24.40;99.90;;;;;;4979615;28;20184;-75
2022/08/04 06:19:52;;;;;;;2.53;2.03;;;24.50;99.90;;;;;;4976001;28;20195;-75
2022/08/04 06:22:20;;;;;;;2.92;2.00;;;24.50;99.90;;;;;;4980246;28;20226;-74
2022/08/04 06:24:48;;;;;;;2.60;2.13;;;24.60;99.90;;;;;;4983410;28;20223;-75
2022/08/04 06:27:23;;;;;;;5.45;2.22;;;24.70;99.90;;;;;;4982476;28;20184;-75
2022/08/04 06:29:49;;;;;;;2.55;2.00;;;24.80;99.90;;;;;;4983412;28;20183;-75
2022/08/04 06:32:26;;;;;;;2.17;1.95;;;24.90;99.90;;;;;;4981564;28;20246;-76
2022/08/04 06:34:58;;;;;;;4.15;2.20;;;25.00;99.90;;;;;;4979766;28;20343;-75
2022/08/04 06:37:25;;;;;;;2.78;2.10;;;25.10;99.90;;;;;;4977465;28;20238;-75
2022/08/04 06:39:52;;;;;;;4.40;1.88;;;25.20;99.90;;;;;;4977020;28;20300;-74
2022/08/04 06:42:24;;;;;;;2.53;2.05;;;25.30;99.90;;;;;;4982953;28;20203;-73
2022/08/04 06:44:54;;;;;;;2.90;1.90;;;25.40;99.90;;;;;;4979931;28;20215;-74
2022/08/04 06:47:23;;;;;;;3.30;2.00;;;25.40;99.90;;;;;;4980960;28;20174;-74
2022/08/04 06:49:52;;;;;;;2.67;1.95;;;25.50;99.90;;;;;;4983164;28;20184;-73
2022/08/04 06:52:22;;;;;;;2.35;2.08;;;25.60;99.90;;;;;;4980205;28;20227;-72
2022/08/04 06:54:50;;;;;;;2.33;2.13;;;25.70;99.90;;;;;;4982625;28;20187;-73
2022/08/04 06:57:19;;;;;;;3.33;2.03;;;25.80;99.90;;;;;;4983107;28;20216;-73
2022/08/04 07:00:03;;;;;;;3.28;2.08;;;26.00;99.90;;;;;;4984491;28;20235;-74
2022/08/04 07:02:35;;;;;;;2.50;2.17;;;26.10;99.90;;;;;;4984654;28;20339;-73
2022/08/04 07:05:01;;;;;;;2.33;2.13;;;26.20;99.90;;;;;;4981636;28;20244;-74
2022/08/04 07:07:29;;;;;;;2.13;1.73;;;26.30;99.90;;;;;;4977804;28;20226;-71
2022/08/04 07:09:57;;;;;;;3.58;1.80;;;26.40;99.70;;;;;;4982967;28;20223;-71
2022/08/04 07:12:24;;;;;;;4.93;1.92;;;26.50;99.60;;;;;;4979976;28;20191;-73
2022/08/04 07:14:50;;;;;;;3.60;1.70;;;26.50;99.50;;;;;;4978631;28;20194;-73
2022/08/04 07:17:22;;;;;;;2.22;2.00;;;26.70;99.40;;;;;;4987566;28;20183;-73
2022/08/04 07:19:47;;;;;;;2.75;1.92;;;26.80;99.20;;;;;;4982228;28;20211;-73
2022/08/04 07:22:17;;;;;;;3.38;1.92;;;26.90;99.00;;;;;;4992185;28;20267;-72
2022/08/04 07:24:45;;;;;;;2.60;1.85;;;27.00;98.70;;;;;;4982319;28;20179;-74
2022/08/04 07:27:13;;;;;;;4.60;1.98;;;27.10;98.50;;;;;;4980824;28;20213;-76
2022/08/04 07:29:39;;;;;;;3.58;1.60;;;27.20;98.40;;;;;;4984086;28;20172;-75
2022/08/04 07:32:05;;;;;;;2.00;1.60;;;27.30;98.40;;;;;;4985404;28;20188;-76
2022/08/04 07:34:32;;;;;;;2.13;1.80;;;27.50;97.90;;;;;;4981955;28;20207;-75
2022/08/04 07:37:00;;;;;;;3.50;1.90;;;27.60;97.70;;;;;;4978836;28;20194;-73
2022/08/04 07:39:28;;;;;;;2.38;1.83;;;27.70;97.70;;;;;;4984350;28;20183;-73
2022/08/04 07:41:55;;;;;;;1.73;1.60;;;27.80;97.40;;;;;;4987607;28;20215;-75
2022/08/04 07:44:21;;;;;;;2.17;1.60;;;27.90;97.30;;;;;;4982828;28;20271;-75
2022/08/04 07:46:47;;;;;;;2.75;1.65;;;28.00;97.10;;;;;;4982349;28;20309;-75
2022/08/04 07:49:13;;;;;;;4.43;1.80;;;28.20;96.70;;;;;;4983089;28;20176;-75
2022/08/04 07:51:42;;;;;;;2.05;1.70;;;28.30;96.50;;;;;;4985080;28;20195;-74
2022/08/04 07:54:09;;;;;;;1.80;1.60;;;28.40;96.30;;;;;;4981781;28;20269;-75
2022/08/04 07:56:36;;;;;;;4.25;1.90;;;28.50;96.20;;;;;;4990369;28;20183;-75
2022/08/04 07:59:03;;;;;;;2.80;1.60;;;28.60;95.90;;;;;;4987351;28;20206;-72
2022/08/04 08:01:29;;;;;;;2.40;1.63;;;28.70;95.70;;;;;;4988205;28;20203;-76
2022/08/04 08:03:56;;;;;;;3.47;1.77;;;28.90;95.50;;;;;;4986836;28;20184;-75
2022/08/04 08:06:28;;;;;;;2.17;1.67;;;29.00;95.50;;;;;;4991120;28;20191;-73
2022/08/04 08:08:54;;;;;;;4.30;1.90;;;29.00;94.50;;;;;;4991493;28;20195;-75
2022/08/04 08:11:25;;;;;;;3.25;1.85;;;29.10;94.20;;;;;;4990282;28;20193;-75
2022/08/04 08:13:53;;;;;;;5.43;1.70;;;29.20;94.00;;;;;;4991863;28;20264;-76
2022/08/04 08:16:19;;;;;;;2.50;1.70;;;29.30;93.70;;;;;;4987458;28;20207;-77
2022/08/04 08:18:46;;;;;;;2.20;1.90;;;29.30;93.40;;;;;;4982498;28;20198;-75
2022/08/04 08:21:16;;;;;;;2.30;1.80;;;29.40;93.30;;;;;;4987967;28;20199;-74
2022/08/04 08:23:44;;;;;;;4.03;1.75;;;29.50;92.90;;;;;;4992544;28;20186;-72
2022/08/04 08:26:12;;;;;;;2.90;1.80;;;29.60;93.00;;;;;;4989018;28;20192;-74
2022/08/04 08:28:40;;;;;;;3.53;1.70;;;29.70;92.90;;;;;;4983210;28;20180;-73
2022/08/04 08:31:05;;;;;;;2.45;2.03;;;29.80;92.80;;;;;;4989451;28;20176;-73
2022/08/04 08:33:36;;;;;;;3.50;1.73;;;29.80;92.50;;;;;;4994733;28;20191;-73
2022/08/04 08:36:18;;;;;;;2.30;1.60;;;29.90;92.10;;;;;;4980026;28;20190;-74
2022/08/04 08:38:49;;;;;;;1.92;1.58;;;30.00;91.60;;;;;;4986976;28;20187;-73
2022/08/04 08:41:37;;;;;;;2.63;1.73;;;30.10;91.70;;;;;;4991605;28;20204;-74
2022/08/04 08:44:20;;;;;;;4.18;1.80;;;30.20;91.50;;;;;;5003829;28;20183;-73
2022/08/04 08:46:49;;;;;;;2.35;1.70;;;30.20;91.10;;;;;;5002420;28;20205;-74
2022/08/04 08:49:37;;;;;;;2.63;1.70;;;30.40;90.60;;;;;;4990126;28;20219;-72
2022/08/04 08:52:08;;;;;;;2.50;1.70;;;30.40;90.30;;;;;;5001836;28;20195;-73
2022/08/04 08:54:43;;;;;;;3.22;1.75;;;30.50;90.80;;;;;;4989094;28;20207;-75
2022/08/04 08:57:42;;;;;;;1.95;1.60;;;30.60;90.30;;;;;;4995567;28;20213;-75
2022/08/04 09:00:07;;;;;;;3.78;1.50;;;30.70;89.80;;;;;;4985822;28;20234;-74
2022/08/04 09:02:48;;;;;;;1.98;1.40;;;30.80;90.50;;;;;;4985083;28;20206;-73
2022/08/04 09:05:13;;;;;;;2.90;1.50;;;31.00;89.50;;;;;;4986771;28;20182;-75
2022/08/04 09:07:48;;;;;;;1.77;1.50;;;31.10;90.40;;;;;;4990237;28;20187;-75
2022/08/04 09:10:25;;;;;;;1.88;1.63;;;31.30;89.40;;;;;;4984635;28;20198;-75
2022/08/04 09:13:07;;;;;;;3.58;1.60;;;31.50;90.20;;;;;;4981225;28;20187;-75
2022/08/04 09:15:58;;;;;;;3.17;1.70;;;31.80;87.30;;;;;;4980943;28;20210;-71
2022/08/04 09:18:31;;;;;;;3.05;1.73;;;32.00;86.20;;;;;;4990079;28;20262;-75
2022/08/04 09:21:24;;;;;;;5.03;1.70;;;32.30;86.50;;;;;;4991891;28;20203;-75
2022/08/04 09:24:04;;;;;;;1.83;1.50;;;32.40;86.20;;;;;;4982491;28;20175;-74
2022/08/04 09:26:53;;;;;;;2.08;1.52;;;32.60;86.00;;;;;;4981176;28;20202;-75
2022/08/04 09:29:41;;;;;;;2.97;1.30;;;32.80;83.30;;;;;;4982982;28;20208;-75
2022/08/04 09:32:16;;;;;;;1.52;1.42;;;33.00;81.50;;;;;;5000898;28;20183;-75
2022/08/04 09:35:04;;;;;;;1.75;1.35;;;33.20;84.40;;;;;;4986268;28;20193;-75
2022/08/04 09:37:37;;;;;;;2.60;1.70;;;33.50;82.80;;;;;;4982710;28;20203;-76
2022/08/04 09:40:19;;;;;;;2.30;1.88;;;33.70;84.80;;;;;;4986370;28;20243;-74
2022/08/04 09:43:10;;;;;;;5.93;1.70;;;33.90;82.50;;;;;;4982823;28;20215;-74
2022/08/04 09:45:53;;;;;;;1.60;1.30;;;34.20;81.30;;;;;;4986314;28;20262;-75
2022/08/04 09:49:00;;;;;;;1.50;1.20;;;34.40;80.70;;;;;;4996480;28;20174;-74
2022/08/04 09:51:32;;;;;;;1.63;1.52;;;34.60;79.30;;;;;;4984075;28;20190;-73
2022/08/04 09:54:08;;;;;;;2.20;1.42;;;34.70;78.60;;;;;;4993935;28;20190;-74
2022/08/04 09:56:49;;;;;;;2.38;1.38;;;34.80;77.70;;;;;;4980860;28;20322;-73
2022/08/04 09:59:38;;;;;;;5.25;1.60;;;34.90;75.80;;;;;;4980344;28;20206;-74
2022/08/04 10:02:08;;;;;;;1.30;1.20;;;35.00;75.30;;;;;;4980373;28;20248;-74
2022/08/04 10:04:37;;;;;;;1.63;1.45;;;35.00;75.50;;;;;;4979117;28;20198;-74
2022/08/04 10:07:12;;;;;;;2.58;1.20;;;35.00;74.60;;;;;;4985833;28;20182;-73
2022/08/04 10:10:09;;;;;;;1.50;1.40;;;35.00;73.20;;;;;;4990126;28;20191;-74
2022/08/04 10:12:58;;;;;;;5.10;1.52;;;35.10;71.50;;;;;;4983246;28;20214;-73
2022/08/04 10:15:35;;;;;;;1.95;1.20;;;35.10;71.10;;;;;;4982461;28;20187;-74
2022/08/04 10:18:24;;;;;;;1.63;1.10;;;35.10;71.10;;;;;;4992863;28;20183;-74
2022/08/04 10:21:30;;;;;;;2.25;1.33;;;35.20;69.40;;;;;;4984894;28;20178;-74
2022/08/04 10:24:13;;;;;;;1.77;1.33;;;35.20;69.30;;;;;;4987665;28;20236;-74
2022/08/04 10:27:09;;;;;;;1.13;1.02;;;35.40;68.00;;;;;;4984174;28;20197;-74
2022/08/04 10:29:43;;;;;;;1.35;1.25;;;35.50;69.40;;;;;;4982444;28;20194;-77
2022/08/04 10:32:25;;;;;;;1.70;1.23;;;35.70;68.40;;;;;;4984070;28;20199;-71
2022/08/04 10:35:12;;;;;;;2.10;1.10;;;35.90;68.70;;;;;;4979933;28;20273;-74
2022/08/04 10:37:59;;;;;;;2.22;1.40;;;36.10;67.20;;;;;;4979744;28;20199;-73
2022/08/04 10:40:47;;;;;;;1.85;1.05;;;36.30;66.40;;;;;;4983587;28;20214;-72
2022/08/04 10:43:38;;;;;;;3.72;1.23;;;36.30;66.10;;;;;;4978701;28;20256;-73
2022/08/04 10:46:21;;;;;;;1.50;1.40;;;36.30;64.90;;;;;;4984836;28;20195;-73
2022/08/04 10:48:55;;;;;;;1.58;1.00;;;36.40;66.10;;;;;;4982838;28;20199;-74
2022/08/04 10:51:46;;;;;;;2.00;0.90;;;36.40;64.00;;;;;;4981486;28;20213;-70
2022/08/04 10:54:36;;;;;;;2.83;1.42;;;36.50;58.00;;;;;;4981594;28;20269;-74
2022/08/04 10:57:23;;;;;;;2.80;0.98;;;36.70;56.90;;;;;;4988190;28;20175;-74
2022/08/04 11:00:03;;;;;;;1.70;0.90;;;37.00;58.80;;;;;;4979572;28;20176;-75
2022/08/04 11:03:10;;;;;;;1.23;0.90;;;37.20;59.20;;;;;;4987124;28;20218;-75
2022/08/04 11:05:49;;;;;;;3.53;1.10;;;37.60;57.70;;;;;;5000223;28;20199;-72
2022/08/04 11:08:20;;;;;;;2.10;1.00;;;37.90;57.30;;;;;;4991246;28;20202;-73
2022/08/04 11:11:13;;;;;;;2.47;0.82;;;38.10;58.00;;;;;;4986141;28;20237;-74
2022/08/04 11:13:45;;;;;;;2.65;1.08;;;38.20;56.00;;;;;;4988490;28;20179;-73
2022/08/04 11:16:23;;;;;;;1.65;1.30;;;38.30;55.50;;;;;;5004567;28;20163;-73
2022/08/04 11:18:59;;;;;;;1.15;0.80;;;38.50;54.20;;;;;;4979891;28;20210;-77
2022/08/04 11:21:32;;;;;;;2.67;1.00;;;38.60;54.60;;;;;;4998499;28;20199;-75
2022/08/04 11:24:19;;;;;;;2.05;0.80;;;38.80;50.30;;;;;;4977151;28;20184;-75
2022/08/04 11:27:00;;;;;;;1.35;0.75;;;38.90;43.60;;;;;;4980261;28;20170;-75
2022/08/04 11:29:46;;;;;;;1.27;0.73;;;39.00;47.70;;;;;;4979738;28;20274;-77
2022/08/04 11:32:19;;;;;;;1.30;0.70;;;39.00;48.70;;;;;;4970107;28;20218;-75
2022/08/04 11:34:53;;;;;;;0.70;0.60;;;39.20;48.40;;;;;;4980937;28;20182;-76
2022/08/04 11:37:27;;;;;;;1.65;0.80;;;39.30;48.00;;;;;;4975835;28;20182;-74
2022/08/04 11:40:08;;;;;;;0.90;0.70;;;39.40;46.20;;;;;;4979152;28;20238;-77
2022/08/04 11:42:42;;;;;;;3.20;0.85;;;39.60;45.70;;;;;;4982104;28;20202;-74
2022/08/04 11:45:29;;;;;;;1.70;1.00;;;39.80;45.80;;;;;;4979068;28;20242;-76
2022/08/04 11:48:03;;;;;;;2.45;1.00;;;40.00;45.90;;;;;;4986060;28;20183;-74
2022/08/04 11:50:47;;;;;;;1.23;1.00;;;40.00;46.00;;;;;;4980658;28;20193;-75
2022/08/04 11:53:18;;;;;;;3.03;1.10;;;40.00;46.10;;;;;;4979980;28;20293;-76
2022/08/04 11:55:47;;;;;;;1.35;1.00;;;39.90;46.70;;;;;;4981361;28;20199;-75
2022/08/04 11:58:13;;;;;;;2.42;1.00;;;39.90;47.00;;;;;;4979899;28;20799;-73
2022/08/04 12:00:50;;;;;;;2.03;1.08;;;39.80;46.10;;;;;;4979469;28;20269;-75
2022/08/04 12:03:54;;;;;;;2.38;0.98;;;39.70;44.60;;;;;;4981845;28;20227;-75
2022/08/04 12:06:42;;;;;;;2.85;1.20;;;39.50;42.80;;;;;;4988631;28;20285;-75
2022/08/04 12:09:18;;;;;;;3.83;1.38;;;39.20;44.10;;;;;;4985143;28;20195;-76
2022/08/04 12:12:24;;;;;;;3.50;1.20;;;38.80;43.90;;;;;;4981585;28;20186;-76
2022/08/04 12:15:27;;;;;;;2.38;1.38;;;38.40;44.20;;;;;;4999797;28;20324;-76
2022/08/04 12:18:01;;;;;;;1.30;1.00;;;38.10;45.80;;;;;;4985694;28;20217;-74
2022/08/04 12:20:30;;;;;;;3.45;1.17;;;37.70;46.50;;;;;;4985863;28;20206;-75
2022/08/04 12:22:59;;;;;;;4.43;1.40;;;37.40;47.10;;;;;;4987522;28;20202;-75
2022/08/04 12:25:35;;;;;;;4.15;1.75;;;37.20;47.50;;;;;;4984804;28;20200;-70
2022/08/04 12:28:24;;;;;;;6.70;1.58;;;37.00;47.70;;;;;;4990506;28;20253;-75
2022/08/04 12:31:01;;;;;;;2.22;1.30;;;36.80;48.20;;;;;;4974355;28;20249;-73
2022/08/04 12:33:46;;;;;;;2.85;1.60;;;36.60;48.40;;;;;;4985741;28;20195;-76
2022/08/04 12:36:39;;;;;;;5.47;1.20;;;36.50;48.70;;;;;;4985131;28;20194;-76
2022/08/04 12:39:19;;;;;;;1.92;1.20;;;36.30;49.10;;;;;;5000956;28;20245;-75
2022/08/04 12:41:52;;;;;;;1.88;1.40;;;36.20;49.50;;;;;;4991269;28;20297;-70
2022/08/04 12:44:21;;;;;;;1.65;1.25;;;36.00;49.60;;;;;;4996372;28;21046;-75
2022/08/04 12:46:50;;;;;;;2.00;1.27;;;35.90;49.90;;;;;;4993617;28;20289;-74
2022/08/04 12:49:16;;;;;;;1.85;1.27;;;35.80;50.10;;;;;;4987656;28;20238;-76
2022/08/04 12:51:44;;;;;;;2.58;1.20;;;35.80;50.50;;;;;;4986319;28;20227;-75
2022/08/04 12:54:11;;;;;;;2.60;1.42;;;35.70;50.70;;;;;;4984624;28;20314;-74
2022/08/04 12:56:39;;;;;;;2.80;1.20;;;35.70;50.80;;;;;;4987957;28;20189;-73
2022/08/04 12:59:10;;;;;;;2.63;1.50;;;35.60;51.00;;;;;;4993868;28;20171;-71
2022/08/04 13:01:37;;;;;;;3.03;1.50;;;35.50;51.30;;;;;;4993224;28;20270;-75
2022/08/04 13:04:22;;;;;;;5.00;1.50;;;35.40;51.50;;;;;;4982378;28;20170;-77
2022/08/04 13:06:58;;;;;;;3.00;1.40;;;35.30;51.90;;;;;;4987639;28;20206;-76
2022/08/04 13:09:28;;;;;;;6.38;1.60;;;35.20;51.90;;;;;;4989310;28;20796;-74
2022/08/04 13:12:04;;;;;;;4.68;1.45;;;35.10;52.00;;;;;;4986959;28;20185;-77
2022/08/04 13:14:38;;;;;;;4.00;1.40;;;34.90;51.90;;;;;;4989254;28;20285;-76
2022/08/04 13:17:05;;;;;;;4.55;1.73;;;34.80;52.10;;;;;;4987803;28;20187;-75
2022/08/04 13:19:34;;;;;;;3.75;1.50;;;34.70;52.30;;;;;;4984654;28;20175;-75
2022/08/04 13:22:00;;;;;;;1.35;1.05;;;34.70;52.50;;;;;;4992390;28;20199;-72
2022/08/04 13:24:28;;;;;;;3.15;1.10;;;34.70;52.60;;;;;;4985279;28;20251;-72
2022/08/04 13:27:07;;;;;;;4.00;1.30;;;34.70;53.10;;;;;;4984561;28;20195;-76
2022/08/04 13:29:39;;;;;;;3.80;1.10;;;34.70;52.40;;;;;;4987357;28;20253;-76
2022/08/04 13:32:06;;;;;;;2.38;1.20;;;34.70;52.50;;;;;;4985309;28;20238;-74
2022/08/04 13:34:34;;;;;;;3.15;1.23;;;34.70;52.40;;;;;;4983061;28;20289;-75
2022/08/04 13:37:01;;;;;;;6.13;1.25;;;34.70;52.30;;;;;;4981985;28;20221;-74
2022/08/04 13:39:28;;;;;;;3.42;1.20;;;34.70;52.20;;;;;;4982178;28;20190;-75